Linden, TN

7:31 PM CDT on March 30, 2015 (GMT -0500)
Cane Creek | | Change Station
CLOSE
Current Station
Personal Weather Station
Location: Centerville, TN
Elevation: 499 ft
Nearby Weather Stations

Elev 499 ft 35.70 °N, 87.74 °W | Updated 5 minutes ago

Clear
Clear
58.3 °F
Feels Like 58.3 °F
N
0.4
Wind Variable Wind from ESE
Gusts 2.5 mph

Today
High -- | Low -- °F
--% Chance of Precip.
Yesterday
High -- | Low -- °F
Precip. -- in
6:41 AM 7:11 PM
Waxing Gibbous, 83% visible
Pressure 30.09 in
Visibility 10.0 miles
Clouds Clear
Dew Point 40 °F
Humidity 50%
Rainfall 0.11 in
Snow Depth Not available.
UV 0 out of 12
Pollen 11.70 out of 12
Air Quality Not available.
Flu Activity Not available.
METAR KMRC 310015Z AUTO 26003KT 10SM CLR 18/M02 A3009 RMK

More Conditions Fewer Conditions

Pressure 30.09 in
Visibility 10.0 miles
Clouds Clear
Dew Point 40 °F
Humidity 50%
Rainfall 0.11 in
Snow Depth Not available.
UV 0 out of 12
Pollen 11.70 out of 12
Air Quality Not available.
Flu Activity Not available.
METAR KMRC 310015Z AUTO 26003KT 10SM CLR 18/M02 A3009 RMK

More Conditions Fewer Conditions

10-Day Weather Forecast

Almanac

Astronomy

Mar. 30, 2015 Rise Set
Actual Time
Civil Twilight
Nautical Twilight
Astronomical Twilight
Moon
Length of Visible Light
Length of Day
Tomorrow will be .
, % of the Moon is Illuminated

Today's Extremes

State Highs State Lows

Community

WunderPhotos

Upload Photos

1,809,628 photos uploaded!

WunderBlogs® & News

Nearby

Air Quality

  Air Quality AQ Index Pollutant
Not available.

Snow Depth

Station Depth Elevation

Earthquake Activity

City Distance Mag. Time & Date
Minimum magnitude displayed is 2.5.

Coastal Water Temperatures

Place Temperature

Stations

Nearby Weather Stations

Station Location Temp. Windchill Dew Point Humidity Wind Precip. Elev Updated Type